sensor_id;sensor_type;location;lat;lon;timestamp;temperature;humidity
46319;DHT22;32042;50.916;2.926;2023-05-24T00:00:33;8.30;99.90
46319;DHT22;32042;50.916;2.926;2023-05-24T00:02:59;8.30;99.90
46319;DHT22;32042;50.916;2.926;2023-05-24T00:05:27;8.30;99.90
46319;DHT22;32042;50.916;2.926;2023-05-24T00:07:55;8.30;99.90
46319;DHT22;32042;50.916;2.926;2023-05-24T00:10:21;8.30;99.90
46319;DHT22;32042;50.916;2.926;2023-05-24T00:12:47;8.20;99.90
46319;DHT22;32042;50.916;2.926;2023-05-24T00:15:13;8.20;99.90
46319;DHT22;32042;50.916;2.926;2023-05-24T00:17:39;8.20;99.90
46319;DHT22;32042;50.916;2.926;2023-05-24T00:20:10;8.20;99.90
46319;DHT22;32042;50.916;2.926;2023-05-24T00:22:37;8.20;99.90
46319;DHT22;32042;50.916;2.926;2023-05-24T00:25:03;8.20;99.90
46319;DHT22;32042;50.916;2.926;2023-05-24T00:27:29;8.10;99.90
46319;DHT22;32042;50.916;2.926;2023-05-24T00:29:55;8.10;99.90
46319;DHT22;32042;50.916;2.926;2023-05-24T00:32:21;8.10;99.90
46319;DHT22;32042;50.916;2.926;2023-05-24T00:34:47;8.10;99.90
46319;DHT22;32042;50.916;2.926;2023-05-24T00:37:13;8.00;99.90
46319;DHT22;32042;50.916;2.926;2023-05-24T00:39:39;8.00;99.90
46319;DHT22;32042;50.916;2.926;2023-05-24T00:42:06;8.00;99.90
46319;DHT22;32042;50.916;2.926;2023-05-24T00:44:32;8.00;99.90
46319;DHT22;32042;50.916;2.926;2023-05-24T00:46:58;8.00;99.90
46319;DHT22;32042;50.916;2.926;2023-05-24T00:49:24;7.90;99.90
46319;DHT22;32042;50.916;2.926;2023-05-24T00:51:51;7.90;99.90
46319;DHT22;32042;50.916;2.926;2023-05-24T00:54:18;7.90;99.90
46319;DHT22;32042;50.916;2.926;2023-05-24T00:56:43;7.90;99.90
46319;DHT22;32042;50.916;2.926;2023-05-24T00:59:09;7.90;99.90
46319;DHT22;32042;50.916;2.926;2023-05-24T01:01:35;7.80;99.90
46319;DHT22;32042;50.916;2.926;2023-05-24T01:04:02;7.80;99.90
46319;DHT22;32042;50.916;2.926;2023-05-24T01:06:28;7.80;99.90
46319;DHT22;32042;50.916;2.926;2023-05-24T01:17:03;7.70;99.90
46319;DHT22;32042;50.916;2.926;2023-05-24T01:19:56;7.70;99.90
46319;DHT22;32042;50.916;2.926;2023-05-24T01:23:04;7.70;99.90
46319;DHT22;32042;50.916;2.926;2023-05-24T01:28:10;7.60;99.90
46319;DHT22;32042;50.916;2.926;2023-05-24T01:30:38;7.60;99.90
46319;DHT22;32042;50.916;2.926;2023-05-24T01:33:04;7.60;99.90
46319;DHT22;32042;50.916;2.926;2023-05-24T01:35:30;7.60;99.90
46319;DHT22;32042;50.916;2.926;2023-05-24T01:37:56;7.60;99.90
46319;DHT22;32042;50.916;2.926;2023-05-24T01:40:22;7.60;99.90
46319;DHT22;32042;50.916;2.926;2023-05-24T01:42:55;7.60;99.90
46319;DHT22;32042;50.916;2.926;2023-05-24T01:45:34;7.60;99.90
46319;DHT22;32042;50.916;2.926;2023-05-24T01:48:15;7.60;99.90
46319;DHT22;32042;50.916;2.926;2023-05-24T01:51:14;7.60;99.90
46319;DHT22;32042;50.916;2.926;2023-05-24T01:53:44;7.60;99.90
46319;DHT22;32042;50.916;2.926;2023-05-24T01:56:15;7.60;99.90
46319;DHT22;32042;50.916;2.926;2023-05-24T01:58:43;7.60;99.90
46319;DHT22;32042;50.916;2.926;2023-05-24T02:01:11;7.60;99.90
46319;DHT22;32042;50.916;2.926;2023-05-24T02:03:38;7.60;99.90
46319;DHT22;32042;50.916;2.926;2023-05-24T02:06:04;7.60;99.90
46319;DHT22;32042;50.916;2.926;2023-05-24T02:08:30;7.60;99.90
46319;DHT22;32042;50.916;2.926;2023-05-24T02:10:55;7.50;99.90
46319;DHT22;32042;50.916;2.926;2023-05-24T02:13:21;7.60;99.90
46319;DHT22;32042;50.916;2.926;2023-05-24T02:15:47;7.50;99.90
46319;DHT22;32042;50.916;2.926;2023-05-24T02:18:13;7.50;99.90
46319;DHT22;32042;50.916;2.926;2023-05-24T02:20:39;7.50;99.90
46319;DHT22;32042;50.916;2.926;2023-05-24T02:23:07;7.50;99.90
46319;DHT22;32042;50.916;2.926;2023-05-24T02:25:33;7.50;99.90
46319;DHT22;32042;50.916;2.926;2023-05-24T02:27:59;7.50;99.90
46319;DHT22;32042;50.916;2.926;2023-05-24T02:30:26;7.50;99.90
46319;DHT22;32042;50.916;2.926;2023-05-24T02:32:53;7.50;99.90
46319;DHT22;32042;50.916;2.926;2023-05-24T02:35:19;7.40;99.90
46319;DHT22;32042;50.916;2.926;2023-05-24T02:37:45;7.40;99.90
46319;DHT22;32042;50.916;2.926;2023-05-24T02:40:11;7.40;99.90
46319;DHT22;32042;50.916;2.926;2023-05-24T02:42:37;7.30;99.90
46319;DHT22;32042;50.916;2.926;2023-05-24T02:45:03;7.30;99.90
46319;DHT22;32042;50.916;2.926;2023-05-24T02:47:29;7.30;99.90
46319;DHT22;32042;50.916;2.926;2023-05-24T02:49:55;7.30;99.90
46319;DHT22;32042;50.916;2.926;2023-05-24T02:52:21;7.30;99.90
46319;DHT22;32042;50.916;2.926;2023-05-24T02:54:50;7.30;99.90
46319;DHT22;32042;50.916;2.926;2023-05-24T02:57:16;7.30;99.90
46319;DHT22;32042;50.916;2.926;2023-05-24T02:59:42;7.30;99.90
46319;DHT22;32042;50.916;2.926;2023-05-24T03:02:08;7.20;99.90
46319;DHT22;32042;50.916;2.926;2023-05-24T03:04:34;7.20;99.90
46319;DHT22;32042;50.916;2.926;2023-05-24T03:06:59;7.20;99.90
46319;DHT22;32042;50.916;2.926;2023-05-24T03:09:25;7.10;99.90
46319;DHT22;32042;50.916;2.926;2023-05-24T03:11:52;7.20;99.90
46319;DHT22;32042;50.916;2.926;2023-05-24T03:14:19;7.20;99.90
46319;DHT22;32042;50.916;2.926;2023-05-24T03:16:47;7.10;99.90
46319;DHT22;32042;50.916;2.926;2023-05-24T03:19:14;7.10;99.90
46319;DHT22;32042;50.916;2.926;2023-05-24T03:21:41;7.10;99.90
46319;DHT22;32042;50.916;2.926;2023-05-24T03:24:07;7.10;99.90
46319;DHT22;32042;50.916;2.926;2023-05-24T03:26:34;7.10;99.90
46319;DHT22;32042;50.916;2.926;2023-05-24T03:28:59;7.00;99.90
46319;DHT22;32042;50.916;2.926;2023-05-24T03:31:25;7.00;99.90
46319;DHT22;32042;50.916;2.926;2023-05-24T03:33:51;7.00;99.90
46319;DHT22;32042;50.916;2.926;2023-05-24T03:36:17;7.00;99.90
46319;DHT22;32042;50.916;2.926;2023-05-24T03:38:43;7.00;99.90
46319;DHT22;32042;50.916;2.926;2023-05-24T03:41:09;7.00;99.90
46319;DHT22;32042;50.916;2.926;2023-05-24T03:43:35;6.90;99.90
46319;DHT22;32042;50.916;2.926;2023-05-24T03:46:00;6.90;99.90
46319;DHT22;32042;50.916;2.926;2023-05-24T03:48:26;6.90;99.90
46319;DHT22;32042;50.916;2.926;2023-05-24T03:50:52;6.90;99.90
46319;DHT22;32042;50.916;2.926;2023-05-24T03:53:18;6.80;99.90
46319;DHT22;32042;50.916;2.926;2023-05-24T03:55:44;6.80;99.90
46319;DHT22;32042;50.916;2.926;2023-05-24T03:58:10;6.70;99.90
46319;DHT22;32042;50.916;2.926;2023-05-24T04:00:37;6.70;99.90
46319;DHT22;32042;50.916;2.926;2023-05-24T04:03:02;6.70;99.90
46319;DHT22;32042;50.916;2.926;2023-05-24T04:05:32;6.70;99.90
46319;DHT22;32042;50.916;2.926;2023-05-24T04:07:57;6.60;99.90
46319;DHT22;32042;50.916;2.926;2023-05-24T04:10:23;6.60;99.90
46319;DHT22;32042;50.916;2.926;2023-05-24T04:12:49;6.50;99.90
46319;DHT22;32042;50.916;2.926;2023-05-24T04:15:15;6.50;99.90
46319;DHT22;32042;50.916;2.926;2023-05-24T04:17:41;6.50;99.90
46319;DHT22;32042;50.916;2.926;2023-05-24T04:20:09;6.50;99.90
46319;DHT22;32042;50.916;2.926;2023-05-24T04:22:34;6.40;99.90
46319;DHT22;32042;50.916;2.926;2023-05-24T04:25:04;6.50;99.90
46319;DHT22;32042;50.916;2.926;2023-05-24T04:27:31;6.50;99.90
46319;DHT22;32042;50.916;2.926;2023-05-24T04:29:57;6.50;99.90
46319;DHT22;32042;50.916;2.926;2023-05-24T04:32:22;6.60;99.90
46319;DHT22;32042;50.916;2.926;2023-05-24T04:34:48;6.60;99.90
46319;DHT22;32042;50.916;2.926;2023-05-24T04:37:15;6.60;99.90
46319;DHT22;32042;50.916;2.926;2023-05-24T04:39:44;6.70;99.90
46319;DHT22;32042;50.916;2.926;2023-05-24T04:42:12;6.70;99.90
46319;DHT22;32042;50.916;2.926;2023-05-24T04:44:41;6.70;99.90
46319;DHT22;32042;50.916;2.926;2023-05-24T04:47:07;6.70;99.90
46319;DHT22;32042;50.916;2.926;2023-05-24T04:49:34;6.70;99.90
46319;DHT22;32042;50.916;2.926;2023-05-24T04:51:59;6.80;99.90
46319;DHT22;32042;50.916;2.926;2023-05-24T04:54:25;6.80;99.90
46319;DHT22;32042;50.916;2.926;2023-05-24T04:56:51;6.90;99.90
46319;DHT22;32042;50.916;2.926;2023-05-24T04:59:16;6.90;99.90
46319;DHT22;32042;50.916;2.926;2023-05-24T05:01:42;7.00;99.90
46319;DHT22;32042;50.916;2.926;2023-05-24T05:04:08;7.00;99.90
46319;DHT22;32042;50.916;2.926;2023-05-24T05:06:34;7.10;99.90
46319;DHT22;32042;50.916;2.926;2023-05-24T05:09:06;7.20;99.90
46319;DHT22;32042;50.916;2.926;2023-05-24T05:11:35;7.30;99.90
46319;DHT22;32042;50.916;2.926;2023-05-24T05:14:01;7.40;99.90
46319;DHT22;32042;50.916;2.926;2023-05-24T05:16:27;7.50;99.90
46319;DHT22;32042;50.916;2.926;2023-05-24T05:18:53;7.60;99.90
46319;DHT22;32042;50.916;2.926;2023-05-24T05:21:19;7.70;99.90
46319;DHT22;32042;50.916;2.926;2023-05-24T05:23:45;7.90;99.90
46319;DHT22;32042;50.916;2.926;2023-05-24T05:26:10;8.00;99.90
46319;DHT22;32042;50.916;2.926;2023-05-24T05:28:36;8.10;99.90
46319;DHT22;32042;50.916;2.926;2023-05-24T05:31:02;8.20;99.90
46319;DHT22;32042;50.916;2.926;2023-05-24T05:33:30;8.40;99.90
46319;DHT22;32042;50.916;2.926;2023-05-24T05:35:56;8.40;99.90
46319;DHT22;32042;50.916;2.926;2023-05-24T05:38:22;8.50;99.90
46319;DHT22;32042;50.916;2.926;2023-05-24T05:40:48;8.60;99.90
46319;DHT22;32042;50.916;2.926;2023-05-24T05:43:14;8.70;99.90
46319;DHT22;32042;50.916;2.926;2023-05-24T05:45:39;8.80;99.90
46319;DHT22;32042;50.916;2.926;2023-05-24T05:48:05;9.00;99.90
46319;DHT22;32042;50.916;2.926;2023-05-24T05:50:31;9.10;99.90
46319;DHT22;32042;50.916;2.926;2023-05-24T05:52:57;9.20;99.90
46319;DHT22;32042;50.916;2.926;2023-05-24T05:55:23;9.30;99.90
46319;DHT22;32042;50.916;2.926;2023-05-24T05:57:49;9.40;99.90
46319;DHT22;32042;50.916;2.926;2023-05-24T06:00:15;9.40;99.90
46319;DHT22;32042;50.916;2.926;2023-05-24T06:02:40;9.50;99.90
46319;DHT22;32042;50.916;2.926;2023-05-24T06:05:07;9.60;99.90
46319;DHT22;32042;50.916;2.926;2023-05-24T06:07:32;9.70;99.90
46319;DHT22;32042;50.916;2.926;2023-05-24T06:09:58;9.70;99.90
46319;DHT22;32042;50.916;2.926;2023-05-24T06:12:24;9.70;99.90
46319;DHT22;32042;50.916;2.926;2023-05-24T06:14:50;9.80;99.90
46319;DHT22;32042;50.916;2.926;2023-05-24T06:17:17;9.80;99.90
46319;DHT22;32042;50.916;2.926;2023-05-24T06:19:43;9.90;99.90
46319;DHT22;32042;50.916;2.926;2023-05-24T06:22:09;10.00;99.90
46319;DHT22;32042;50.916;2.926;2023-05-24T06:24:35;10.00;99.90
46319;DHT22;32042;50.916;2.926;2023-05-24T06:27:01;10.10;99.90
46319;DHT22;32042;50.916;2.926;2023-05-24T06:29:26;10.10;99.90
46319;DHT22;32042;50.916;2.926;2023-05-24T06:31:52;10.20;99.90
46319;DHT22;32042;50.916;2.926;2023-05-24T06:34:18;10.20;99.90
46319;DHT22;32042;50.916;2.926;2023-05-24T06:36:47;10.40;99.90
46319;DHT22;32042;50.916;2.926;2023-05-24T06:39:15;10.40;99.90
46319;DHT22;32042;50.916;2.926;2023-05-24T06:41:42;10.50;99.90
46319;DHT22;32042;50.916;2.926;2023-05-24T06:44:09;10.60;99.90
46319;DHT22;32042;50.916;2.926;2023-05-24T06:46:35;10.70;99.90
46319;DHT22;32042;50.916;2.926;2023-05-24T06:49:00;10.80;99.90
46319;DHT22;32042;50.916;2.926;2023-05-24T06:51:26;10.90;99.90
46319;DHT22;32042;50.916;2.926;2023-05-24T06:53:52;11.00;99.90
46319;DHT22;32042;50.916;2.926;2023-05-24T06:56:18;11.10;99.90
46319;DHT22;32042;50.916;2.926;2023-05-24T06:58:44;11.30;99.90
46319;DHT22;32042;50.916;2.926;2023-05-24T07:01:10;11.50;99.90
46319;DHT22;32042;50.916;2.926;2023-05-24T07:03:36;11.60;99.90
46319;DHT22;32042;50.916;2.926;2023-05-24T07:06:02;11.70;99.90
46319;DHT22;32042;50.916;2.926;2023-05-24T07:08:28;11.90;99.90
46319;DHT22;32042;50.916;2.926;2023-05-24T07:10:54;12.00;99.90
46319;DHT22;32042;50.916;2.926;2023-05-24T07:13:20;12.10;99.90
46319;DHT22;32042;50.916;2.926;2023-05-24T07:15:46;12.20;99.90
46319;DHT22;32042;50.916;2.926;2023-05-24T07:18:13;12.30;99.90
46319;DHT22;32042;50.916;2.926;2023-05-24T07:20:39;12.40;99.90
46319;DHT22;32042;50.916;2.926;2023-05-24T07:23:05;12.40;99.90
46319;DHT22;32042;50.916;2.926;2023-05-24T07:25:31;12.50;99.90
46319;DHT22;32042;50.916;2.926;2023-05-24T07:28:01;12.60;99.90
46319;DHT22;32042;50.916;2.926;2023-05-24T07:30:26;12.60;99.90
46319;DHT22;32042;50.916;2.926;2023-05-24T07:32:53;12.70;99.90
46319;DHT22;32042;50.916;2.926;2023-05-24T07:35:18;12.70;99.90
46319;DHT22;32042;50.916;2.926;2023-05-24T07:37:44;12.80;99.90
46319;DHT22;32042;50.916;2.926;2023-05-24T07:40:11;12.90;99.90
46319;DHT22;32042;50.916;2.926;2023-05-24T07:42:40;12.90;99.90
46319;DHT22;32042;50.916;2.926;2023-05-24T07:45:07;12.90;99.90
46319;DHT22;32042;50.916;2.926;2023-05-24T07:47:36;12.90;99.90
46319;DHT22;32042;50.916;2.926;2023-05-24T07:50:02;12.90;99.90
46319;DHT22;32042;50.916;2.926;2023-05-24T07:52:28;12.90;99.90
46319;DHT22;32042;50.916;2.926;2023-05-24T07:54:54;12.90;99.90
46319;DHT22;32042;50.916;2.926;2023-05-24T07:57:20;12.90;99.90
46319;DHT22;32042;50.916;2.926;2023-05-24T07:59:47;12.90;99.90
46319;DHT22;32042;50.916;2.926;2023-05-24T08:02:13;13.00;99.90
46319;DHT22;32042;50.916;2.926;2023-05-24T08:04:41;13.00;99.90
46319;DHT22;32042;50.916;2.926;2023-05-24T08:07:08;13.00;99.90
46319;DHT22;32042;50.916;2.926;2023-05-24T08:09:34;13.00;99.90
46319;DHT22;32042;50.916;2.926;2023-05-24T08:12:07;12.90;99.90
46319;DHT22;32042;50.916;2.926;2023-05-24T08:14:32;13.00;99.90
46319;DHT22;32042;50.916;2.926;2023-05-24T08:16:58;13.10;99.90
46319;DHT22;32042;50.916;2.926;2023-05-24T08:19:26;13.20;99.90
46319;DHT22;32042;50.916;2.926;2023-05-24T08:21:54;13.40;99.90
46319;DHT22;32042;50.916;2.926;2023-05-24T08:24:21;13.50;99.90
46319;DHT22;32042;50.916;2.926;2023-05-24T08:26:47;13.70;99.90
46319;DHT22;32042;50.916;2.926;2023-05-24T08:29:12;13.80;99.90
46319;DHT22;32042;50.916;2.926;2023-05-24T08:31:38;13.90;99.90
46319;DHT22;32042;50.916;2.926;2023-05-24T08:34:04;14.10;99.90
46319;DHT22;32042;50.916;2.926;2023-05-24T08:36:29;14.20;99.90
46319;DHT22;32042;50.916;2.926;2023-05-24T08:38:55;14.40;99.90
46319;DHT22;32042;50.916;2.926;2023-05-24T08:41:21;14.60;99.90
46319;DHT22;32042;50.916;2.926;2023-05-24T08:43:47;14.70;99.90
46319;DHT22;32042;50.916;2.926;2023-05-24T08:46:16;14.90;99.90
46319;DHT22;32042;50.916;2.926;2023-05-24T08:48:46;14.80;99.90
46319;DHT22;32042;50.916;2.926;2023-05-24T08:51:16;14.80;99.90
46319;DHT22;32042;50.916;2.926;2023-05-24T08:53:44;14.80;99.90
46319;DHT22;32042;50.916;2.926;2023-05-24T08:56:15;14.90;99.90
46319;DHT22;32042;50.916;2.926;2023-05-24T08:58:42;15.00;99.90
46319;DHT22;32042;50.916;2.926;2023-05-24T09:01:10;15.20;99.90
46319;DHT22;32042;50.916;2.926;2023-05-24T09:03:36;15.40;99.90
46319;DHT22;32042;50.916;2.926;2023-05-24T09:06:03;15.50;99.90
46319;DHT22;32042;50.916;2.926;2023-05-24T09:08:30;15.70;99.90
46319;DHT22;32042;50.916;2.926;2023-05-24T09:11:00;15.70;99.90
46319;DHT22;32042;50.916;2.926;2023-05-24T09:13:27;15.60;99.90
46319;DHT22;32042;50.916;2.926;2023-05-24T09:15:52;15.80;99.90
46319;DHT22;32042;50.916;2.926;2023-05-24T09:18:18;15.90;99.90
46319;DHT22;32042;50.916;2.926;2023-05-24T09:20:44;15.90;99.90
46319;DHT22;32042;50.916;2.926;2023-05-24T09:23:10;16.10;99.90
46319;DHT22;32042;50.916;2.926;2023-05-24T09:25:43;16.20;99.90
46319;DHT22;32042;50.916;2.926;2023-05-24T09:28:15;16.30;99.90
46319;DHT22;32042;50.916;2.926;2023-05-24T09:30:45;16.40;99.90
46319;DHT22;32042;50.916;2.926;2023-05-24T09:33:27;16.60;99.90
46319;DHT22;32042;50.916;2.926;2023-05-24T09:35:59;16.60;99.90
46319;DHT22;32042;50.916;2.926;2023-05-24T09:38:27;16.60;99.90
46319;DHT22;32042;50.916;2.926;2023-05-24T09:41:06;16.60;99.90
46319;DHT22;32042;50.916;2.926;2023-05-24T09:43:48;16.50;99.90
46319;DHT22;32042;50.916;2.926;2023-05-24T09:46:18;16.60;99.90
46319;DHT22;32042;50.916;2.926;2023-05-24T09:48:57;16.70;99.90
46319;DHT22;32042;50.916;2.926;2023-05-24T09:51:25;16.80;99.90
46319;DHT22;32042;50.916;2.926;2023-05-24T09:53:57;17.00;99.90
46319;DHT22;32042;50.916;2.926;2023-05-24T09:56:23;17.00;99.90
46319;DHT22;32042;50.916;2.926;2023-05-24T09:58:49;17.30;99.90
46319;DHT22;32042;50.916;2.926;2023-05-24T10:01:15;17.20;99.90
46319;DHT22;32042;50.916;2.926;2023-05-24T10:06:18;17.00;99.90
46319;DHT22;32042;50.916;2.926;2023-05-24T10:08:46;17.10;99.90
46319;DHT22;32042;50.916;2.926;2023-05-24T10:11:13;17.40;99.90
46319;DHT22;32042;50.916;2.926;2023-05-24T10:13:39;17.40;99.90
46319;DHT22;32042;50.916;2.926;2023-05-24T10:16:06;17.50;99.90
46319;DHT22;32042;50.916;2.926;2023-05-24T10:18:32;17.60;99.90
46319;DHT22;32042;50.916;2.926;2023-05-24T10:20:58;17.80;99.90
46319;DHT22;32042;50.916;2.926;2023-05-24T10:23:29;18.00;99.90
46319;DHT22;32042;50.916;2.926;2023-05-24T10:26:07;18.10;99.90
46319;DHT22;32042;50.916;2.926;2023-05-24T10:28:43;18.20;99.90
46319;DHT22;32042;50.916;2.926;2023-05-24T10:31:20;18.20;99.90
46319;DHT22;32042;50.916;2.926;2023-05-24T10:33:46;18.30;99.90
46319;DHT22;32042;50.916;2.926;2023-05-24T10:36:14;18.50;99.90
46319;DHT22;32042;50.916;2.926;2023-05-24T10:38:40;18.50;99.90
46319;DHT22;32042;50.916;2.926;2023-05-24T10:41:07;18.50;99.90
46319;DHT22;32042;50.916;2.926;2023-05-24T10:43:36;18.50;99.90
46319;DHT22;32042;50.916;2.926;2023-05-24T10:46:02;18.60;99.90
46319;DHT22;32042;50.916;2.926;2023-05-24T10:48:32;18.60;99.90
46319;DHT22;32042;50.916;2.926;2023-05-24T10:51:13;18.70;99.90
46319;DHT22;32042;50.916;2.926;2023-05-24T10:53:48;18.70;99.90
46319;DHT22;32042;50.916;2.926;2023-05-24T10:56:15;18.90;99.90
46319;DHT22;32042;50.916;2.926;2023-05-24T11:01:29;19.00;99.90
46319;DHT22;32042;50.916;2.926;2023-05-24T11:04:08;19.00;99.90
46319;DHT22;32042;50.916;2.926;2023-05-24T11:07:03;18.90;99.90
46319;DHT22;32042;50.916;2.926;2023-05-24T11:09:30;18.80;99.90
46319;DHT22;32042;50.916;2.926;2023-05-24T11:12:02;18.80;99.90
46319;DHT22;32042;50.916;2.926;2023-05-24T11:14:30;19.00;99.90
46319;DHT22;32042;50.916;2.926;2023-05-24T11:16:57;19.00;99.90
46319;DHT22;32042;50.916;2.926;2023-05-24T11:19:33;19.10;99.90
46319;DHT22;32042;50.916;2.926;2023-05-24T11:22:01;19.00;99.90
46319;DHT22;32042;50.916;2.926;2023-05-24T11:24:27;19.00;99.90
46319;DHT22;32042;50.916;2.926;2023-05-24T11:27:00;19.00;99.90
46319;DHT22;32042;50.916;2.926;2023-05-24T11:29:30;19.00;99.90
46319;DHT22;32042;50.916;2.926;2023-05-24T11:31:58;19.10;99.90
46319;DHT22;32042;50.916;2.926;2023-05-24T11:34:33;19.20;99.90
46319;DHT22;32042;50.916;2.926;2023-05-24T11:37:01;19.20;99.90
46319;DHT22;32042;50.916;2.926;2023-05-24T11:39:30;19.10;99.90
46319;DHT22;32042;50.916;2.926;2023-05-24T11:41:56;19.10;99.90
46319;DHT22;32042;50.916;2.926;2023-05-24T11:44:22;19.10;99.90
46319;DHT22;32042;50.916;2.926;2023-05-24T11:46:48;19.00;99.90
46319;DHT22;32042;50.916;2.926;2023-05-24T11:49:15;19.10;99.90
46319;DHT22;32042;50.916;2.926;2023-05-24T11:51:41;19.20;99.90
46319;DHT22;32042;50.916;2.926;2023-05-24T11:54:07;19.40;99.90
46319;DHT22;32042;50.916;2.926;2023-05-24T11:56:34;19.60;99.90
46319;DHT22;32042;50.916;2.926;2023-05-24T12:01:32;19.80;99.90
46319;DHT22;32042;50.916;2.926;2023-05-24T12:03:57;19.80;99.90
46319;DHT22;32042;50.916;2.926;2023-05-24T12:06:33;19.90;99.90
46319;DHT22;32042;50.916;2.926;2023-05-24T12:08:59;20.00;99.90
46319;DHT22;32042;50.916;2.926;2023-05-24T12:11:25;20.00;99.90
46319;DHT22;32042;50.916;2.926;2023-05-24T12:13:52;20.10;99.90
46319;DHT22;32042;50.916;2.926;2023-05-24T12:16:18;20.20;99.90
46319;DHT22;32042;50.916;2.926;2023-05-24T12:18:44;20.40;99.90
46319;DHT22;32042;50.916;2.926;2023-05-24T12:21:10;20.30;99.90
46319;DHT22;32042;50.916;2.926;2023-05-24T12:23:36;20.50;99.90
46319;DHT22;32042;50.916;2.926;2023-05-24T12:26:02;20.50;99.90
46319;DHT22;32042;50.916;2.926;2023-05-24T12:28:33;20.60;99.90
46319;DHT22;32042;50.916;2.926;2023-05-24T12:31:01;20.60;99.90
46319;DHT22;32042;50.916;2.926;2023-05-24T12:33:27;20.60;99.90
46319;DHT22;32042;50.916;2.926;2023-05-24T12:35:53;20.80;99.90
46319;DHT22;32042;50.916;2.926;2023-05-24T12:38:22;20.90;99.90
46319;DHT22;32042;50.916;2.926;2023-05-24T12:43:21;20.90;99.90
46319;DHT22;32042;50.916;2.926;2023-05-24T12:45:47;20.60;99.90
46319;DHT22;32042;50.916;2.926;2023-05-24T12:48:12;20.50;99.90
46319;DHT22;32042;50.916;2.926;2023-05-24T12:50:38;20.60;99.90
46319;DHT22;32042;50.916;2.926;2023-05-24T12:53:04;20.60;99.90
46319;DHT22;32042;50.916;2.926;2023-05-24T12:55:32;20.50;99.90
46319;DHT22;32042;50.916;2.926;2023-05-24T12:57:57;20.40;99.90
46319;DHT22;32042;50.916;2.926;2023-05-24T13:00:27;20.30;99.90
46319;DHT22;32042;50.916;2.926;2023-05-24T13:02:57;20.20;99.90
46319;DHT22;32042;50.916;2.926;2023-05-24T13:05:26;20.10;99.90
46319;DHT22;32042;50.916;2.926;2023-05-24T13:07:53;20.10;99.90
46319;DHT22;32042;50.916;2.926;2023-05-24T13:10:21;20.10;99.90
46319;DHT22;32042;50.916;2.926;2023-05-24T13:12:47;20.10;99.90
46319;DHT22;32042;50.916;2.926;2023-05-24T13:15:12;20.10;99.90
46319;DHT22;32042;50.916;2.926;2023-05-24T13:17:42;20.10;99.90
46319;DHT22;32042;50.916;2.926;2023-05-24T13:20:08;20.10;99.90
46319;DHT22;32042;50.916;2.926;2023-05-24T13:22:37;20.20;99.90
46319;DHT22;32042;50.916;2.926;2023-05-24T13:25:06;20.20;99.90
46319;DHT22;32042;50.916;2.926;2023-05-24T13:27:33;20.00;99.90
46319;DHT22;32042;50.916;2.926;2023-05-24T13:29:59;19.90;99.90
46319;DHT22;32042;50.916;2.926;2023-05-24T13:32:24;19.80;99.90
46319;DHT22;32042;50.916;2.926;2023-05-24T13:34:50;19.50;99.90
46319;DHT22;32042;50.916;2.926;2023-05-24T13:37:16;19.20;99.90
46319;DHT22;32042;50.916;2.926;2023-05-24T13:39:42;19.10;99.90
46319;DHT22;32042;50.916;2.926;2023-05-24T13:42:08;19.00;99.90
46319;DHT22;32042;50.916;2.926;2023-05-24T13:44:35;19.10;99.90
46319;DHT22;32042;50.916;2.926;2023-05-24T13:47:01;19.20;99.90
46319;DHT22;32042;50.916;2.926;2023-05-24T13:49:27;19.50;99.90
46319;DHT22;32042;50.916;2.926;2023-05-24T13:51:53;19.50;99.90
46319;DHT22;32042;50.916;2.926;2023-05-24T13:54:19;19.40;99.90
46319;DHT22;32042;50.916;2.926;2023-05-24T13:56:45;19.50;99.90
46319;DHT22;32042;50.916;2.926;2023-05-24T13:59:14;19.60;99.90
46319;DHT22;32042;50.916;2.926;2023-05-24T14:01:40;19.70;99.90
46319;DHT22;32042;50.916;2.926;2023-05-24T14:04:06;19.60;99.90
46319;DHT22;32042;50.916;2.926;2023-05-24T14:06:32;19.60;99.90
46319;DHT22;32042;50.916;2.926;2023-05-24T14:08:59;19.50;99.90
46319;DHT22;32042;50.916;2.926;2023-05-24T14:11:25;19.50;99.90
46319;DHT22;32042;50.916;2.926;2023-05-24T14:13:52;19.50;99.90
46319;DHT22;32042;50.916;2.926;2023-05-24T14:16:18;19.50;99.90
46319;DHT22;32042;50.916;2.926;2023-05-24T14:18:44;19.50;99.90
46319;DHT22;32042;50.916;2.926;2023-05-24T14:21:10;19.50;99.90
46319;DHT22;32042;50.916;2.926;2023-05-24T14:23:37;19.50;99.90
46319;DHT22;32042;50.916;2.926;2023-05-24T14:26:03;19.40;99.90
46319;DHT22;32042;50.916;2.926;2023-05-24T14:28:29;19.30;99.90
46319;DHT22;32042;50.916;2.926;2023-05-24T14:30:55;19.30;99.90
46319;DHT22;32042;50.916;2.926;2023-05-24T14:33:20;19.30;99.90
46319;DHT22;32042;50.916;2.926;2023-05-24T14:35:48;19.40;99.90
46319;DHT22;32042;50.916;2.926;2023-05-24T14:38:14;19.30;99.90
46319;DHT22;32042;50.916;2.926;2023-05-24T14:40:40;19.30;99.90
46319;DHT22;32042;50.916;2.926;2023-05-24T14:43:07;19.30;99.90
46319;DHT22;32042;50.916;2.926;2023-05-24T14:45:36;19.30;99.90
46319;DHT22;32042;50.916;2.926;2023-05-24T14:48:03;19.10;99.90
46319;DHT22;32042;50.916;2.926;2023-05-24T14:50:29;19.00;99.90
46319;DHT22;32042;50.916;2.926;2023-05-24T14:52:55;18.80;99.90
46319;DHT22;32042;50.916;2.926;2023-05-24T14:55:21;18.60;99.90
46319;DHT22;32042;50.916;2.926;2023-05-24T14:57:47;18.60;99.90
46319;DHT22;32042;50.916;2.926;2023-05-24T15:00:13;18.50;99.90
46319;DHT22;32042;50.916;2.926;2023-05-24T15:02:39;18.40;99.90
46319;DHT22;32042;50.916;2.926;2023-05-24T15:05:05;18.30;99.90
46319;DHT22;32042;50.916;2.926;2023-05-24T15:07:31;18.10;99.90
46319;DHT22;32042;50.916;2.926;2023-05-24T15:09:57;18.20;99.90
46319;DHT22;32042;50.916;2.926;2023-05-24T15:12:23;18.30;99.90
46319;DHT22;32042;50.916;2.926;2023-05-24T15:14:48;18.20;99.90
46319;DHT22;32042;50.916;2.926;2023-05-24T15:17:14;18.20;99.90
46319;DHT22;32042;50.916;2.926;2023-05-24T15:19:40;18.20;99.90
46319;DHT22;32042;50.916;2.926;2023-05-24T15:22:06;18.10;99.90
46319;DHT22;32042;50.916;2.926;2023-05-24T15:24:32;18.00;99.90
46319;DHT22;32042;50.916;2.926;2023-05-24T15:26:58;17.90;99.90
46319;DHT22;32042;50.916;2.926;2023-05-24T15:29:24;17.90;99.90
46319;DHT22;32042;50.916;2.926;2023-05-24T15:31:49;17.90;99.90
46319;DHT22;32042;50.916;2.926;2023-05-24T15:34:15;17.90;99.90
46319;DHT22;32042;50.916;2.926;2023-05-24T15:36:41;17.90;99.90
46319;DHT22;32042;50.916;2.926;2023-05-24T15:39:07;18.00;99.90
46319;DHT22;32042;50.916;2.926;2023-05-24T15:41:33;18.00;99.90
46319;DHT22;32042;50.916;2.926;2023-05-24T15:43:59;18.00;99.90
46319;DHT22;32042;50.916;2.926;2023-05-24T15:46:25;18.00;99.90
46319;DHT22;32042;50.916;2.926;2023-05-24T15:48:51;18.10;99.90
46319;DHT22;32042;50.916;2.926;2023-05-24T15:51:17;18.20;99.90
46319;DHT22;32042;50.916;2.926;2023-05-24T15:53:44;18.30;99.90
46319;DHT22;32042;50.916;2.926;2023-05-24T15:56:10;18.30;99.90
46319;DHT22;32042;50.916;2.926;2023-05-24T15:58:36;18.40;99.90